Time;durP1;ratioP1;P1;durP2;ratioP2;P2;SDS_P1;SDS_P2;PMS_P1;PMS_P2;Temp;Humidity;BMP_temperature;BMP_pressure;BME280_temperature;BME280_humidity;BME280_pressure;Samples;Min_cycle;Max_cycle;Signal;HPM_P1;HPM_P2
2022/11/01 00:01:37;;;;;;;10.20;5.93;;;;;;;13.83;100.00;100740.50;4956751;28;20123;-65
2022/11/01 00:04:03;;;;;;;8.35;5.43;;;;;;;13.85;100.00;100729.25;4970328;28;20023;-65
2022/11/01 00:06:28;;;;;;;11.48;5.18;;;;;;;13.90;100.00;100730.22;4970874;28;20450;-65
2022/11/01 00:08:53;;;;;;;10.65;5.45;;;;;;;13.95;100.00;100726.81;4976405;28;20507;-65
2022/11/01 00:11:19;;;;;;;10.73;5.75;;;;;;;13.99;100.00;100723.41;4951307;28;20031;-66
2022/11/01 00:13:45;;;;;;;10.40;5.60;;;;;;;14.05;100.00;100720.88;4969728;28;20027;-65
2022/11/01 00:16:11;;;;;;;13.88;5.95;;;;;;;14.11;100.00;100712.28;4973137;28;20034;-65
2022/11/01 00:18:37;;;;;;;9.07;5.55;;;;;;;14.16;100.00;100711.50;4988937;28;20018;-65
2022/11/01 00:21:02;;;;;;;10.35;4.90;;;;;;;14.23;100.00;100714.22;4974086;28;20533;-65
2022/11/01 00:23:27;;;;;;;10.30;4.75;;;;;;;14.34;100.00;100709.13;4962784;28;20031;-65
2022/11/01 00:25:53;;;;;;;7.57;4.43;;;;;;;14.42;100.00;100707.53;4963352;28;20085;-65
2022/11/01 00:28:19;;;;;;;8.10;4.30;;;;;;;14.49;100.00;100705.88;4956144;28;20078;-65
2022/11/01 00:30:45;;;;;;;7.30;4.47;;;;;;;14.61;100.00;100703.44;4969929;28;20501;-65
2022/11/01 00:33:10;;;;;;;6.30;4.38;;;;;;;14.67;100.00;100699.16;4955314;28;20035;-65
2022/11/01 00:35:38;;;;;;;6.63;4.63;;;;;;;14.77;100.00;100701.03;4970379;28;20058;-65
2022/11/01 00:38:04;;;;;;;5.15;3.88;;;;;;;14.84;100.00;100710.69;4968278;28;20022;-65
2022/11/01 00:40:30;;;;;;;6.47;4.22;;;;;;;14.91;100.00;100700.34;4958172;28;20035;-65
2022/11/01 00:42:55;;;;;;;7.40;3.67;;;;;;;14.97;100.00;100701.28;4956407;28;20391;-65
2022/11/01 00:45:20;;;;;;;8.23;4.55;;;;;;;15.02;100.00;100709.16;4950287;28;20051;-65
2022/11/01 00:47:46;;;;;;;7.93;4.25;;;;;;;15.04;100.00;100710.06;4950017;28;20518;-66
2022/11/01 00:50:12;;;;;;;9.63;4.75;;;;;;;15.05;100.00;100704.00;4956794;28;20073;-65
2022/11/01 00:52:37;;;;;;;7.72;3.65;;;;;;;15.05;100.00;100701.41;4969603;28;20027;-65
2022/11/01 00:55:03;;;;;;;5.80;3.58;;;;;;;15.06;100.00;100700.53;4968932;28;20088;-65
2022/11/01 00:57:28;;;;;;;9.60;4.13;;;;;;;15.07;100.00;100697.06;4968881;28;20015;-65
2022/11/01 00:59:53;;;;;;;6.55;3.83;;;;;;;15.10;100.00;100697.09;4955311;28;20037;-65
2022/11/01 01:02:19;;;;;;;9.05;4.32;;;;;;;15.13;100.00;100697.13;4960996;28;20097;-65
2022/11/01 01:04:44;;;;;;;5.72;4.00;;;;;;;15.13;100.00;100691.91;4976753;28;20026;-65
2022/11/01 01:07:10;;;;;;;6.75;4.00;;;;;;;15.13;100.00;100683.19;4975631;28;20045;-65
2022/11/01 01:09:35;;;;;;;6.28;3.97;;;;;;;15.16;100.00;100690.19;4988874;28;20039;-65
2022/11/01 01:12:01;;;;;;;10.93;4.05;;;;;;;15.19;100.00;100691.09;4983696;28;20042;-65
2022/11/01 01:14:27;;;;;;;7.80;4.25;;;;;;;15.21;100.00;100683.28;4968495;28;20023;-65
2022/11/01 01:16:53;;;;;;;7.25;4.53;;;;;;;15.25;100.00;100690.31;4968468;28;20027;-65
2022/11/01 01:19:19;;;;;;;11.02;4.60;;;;;;;15.31;100.00;100687.72;4969254;28;20045;-65
2022/11/01 01:21:44;;;;;;;6.38;4.07;;;;;;;15.33;100.00;100688.63;4987242;28;20144;-65
2022/11/01 01:24:09;;;;;;;8.77;4.53;;;;;;;15.34;100.00;100684.28;4976788;28;20035;-66
2022/11/01 01:26:34;;;;;;;6.05;3.97;;;;;;;15.33;100.00;100678.19;4968249;28;20038;-65
2022/11/01 01:29:00;;;;;;;9.50;4.60;;;;;;;15.34;100.00;100689.50;4969111;28;20035;-65
2022/11/01 01:31:25;;;;;;;11.30;4.18;;;;;;;15.33;100.00;100691.25;4967915;28;20105;-65
2022/11/01 01:33:50;;;;;;;10.05;4.18;;;;;;;15.32;100.00;100692.13;4961442;28;20491;-65
2022/11/01 01:36:16;;;;;;;8.85;4.57;;;;;;;15.33;100.00;100691.25;4949576;28;20471;-66
2022/11/01 01:38:42;;;;;;;7.22;4.35;;;;;;;15.42;100.00;100692.19;4967235;28;20017;-65
2022/11/01 01:43:51;;;;;;;9.65;4.40;;;;;;;15.41;100.00;100686.09;4951993;28;20513;-65
2022/11/01 01:46:16;;;;;;;8.85;4.20;;;;;;;15.41;100.00;100682.59;4962278;28;20053;-65
2022/11/01 01:48:45;;;;;;;10.85;4.30;;;;;;;15.41;100.00;100674.78;4977533;28;20027;-65
2022/11/01 01:51:15;;;;;;;5.70;3.65;;;;;;;15.39;100.00;100676.50;4950922;28;20057;-65
2022/11/01 01:53:44;;;;;;;5.15;4.28;;;;;;;15.38;100.00;100680.81;4954454;28;20023;-65
2022/11/01 01:56:11;;;;;;;8.13;4.35;;;;;;;15.38;100.00;100673.00;4965698;28;20519;-65
2022/11/01 01:58:48;;;;;;;9.05;4.72;;;;;;;15.42;100.00;100668.69;4951345;28;20467;-65
2022/11/01 02:01:14;;;;;;;6.95;4.20;;;;;;;15.47;100.00;100674.84;4967980;28;20038;-66
2022/11/01 02:03:41;;;;;;;7.60;4.57;;;;;;;15.48;100.00;100681.81;4965560;28;20170;-66
2022/11/01 02:06:10;;;;;;;5.60;3.67;;;;;;;15.50;100.00;100669.66;4956888;28;20050;-65
2022/11/01 02:08:41;;;;;;;7.43;3.75;;;;;;;15.53;100.00;100671.38;4955455;28;20031;-65
2022/11/01 02:11:09;;;;;;;10.85;4.13;;;;;;;15.56;100.00;100663.59;4980059;28;20466;-65
2022/11/01 02:13:37;;;;;;;7.25;3.50;;;;;;;15.61;100.00;100667.97;4953410;28;20098;-65
2022/11/01 02:16:25;;;;;;;7.68;4.80;;;;;;;15.64;100.00;100680.19;4956306;28;20774;-65
2022/11/01 02:19:27;;;;;;;7.70;3.65;;;;;;;15.64;100.00;100674.09;4962542;28;20082;-66
2022/11/01 02:22:10;;;;;;;7.32;4.00;;;;;;;15.66;100.00;100668.03;4968389;28;20026;-65
2022/11/01 02:25:14;;;;;;;9.82;4.28;;;;;;;15.68;100.00;100673.28;4969858;28;20595;-65
2022/11/01 02:28:19;;;;;;;6.88;4.25;;;;;;;15.67;100.00;100681.97;4962842;28;20039;-65
2022/11/01 02:31:07;;;;;;;6.38;4.03;;;;;;;15.68;100.00;100673.28;4970989;28;20053;-66
2022/11/01 02:33:47;;;;;;;6.35;3.65;;;;;;;15.68;100.00;100683.72;4959096;28;20037;-65
2022/11/01 02:36:23;;;;;;;9.98;4.70;;;;;;;15.68;100.00;100688.94;4981323;28;20034;-66
2022/11/01 02:39:14;;;;;;;8.73;4.10;;;;;;;15.71;100.00;100668.06;4966965;28;20030;-66
2022/11/01 02:41:47;;;;;;;7.50;3.72;;;;;;;15.72;100.00;100680.28;4960698;28;20535;-65
2022/11/01 02:44:20;;;;;;;10.05;4.22;;;;;;;15.69;100.00;100688.06;4974791;28;20102;-65
2022/11/01 02:47:02;;;;;;;8.07;3.97;;;;;;;15.68;100.00;100688.94;4980356;28;20069;-66
2022/11/01 02:49:33;;;;;;;6.95;4.18;;;;;;;15.66;100.00;100695.88;4963510;28;20487;-66
2022/11/01 02:52:00;;;;;;;5.80;4.10;;;;;;;15.65;100.00;100694.16;4956691;28;20035;-65
2022/11/01 02:54:52;;;;;;;7.40;4.25;;;;;;;15.64;100.00;100692.38;4964689;28;20374;-65
2022/11/01 02:57:17;;;;;;;;;;;;;;;15.63;100.00;100703.69;4974243;28;20038;-65
2022/11/01 02:59:47;;;;;;;6.82;3.67;;;;;;;15.61;100.00;100704.53;4957861;28;19914;-66
2022/11/01 03:02:38;;;;;;;5.40;3.42;;;;;;;15.61;100.00;100704.53;4965180;28;20117;-65
2022/11/01 03:05:06;;;;;;;7.35;4.00;;;;;;;15.59;100.00;100701.06;4954380;28;20035;-65
2022/11/01 03:07:32;;;;;;;7.72;4.00;;;;;;;15.59;100.00;100705.41;4963522;28;20031;-65
2022/11/01 03:09:58;;;;;;;7.60;4.43;;;;;;;15.56;100.00;100698.41;4966272;28;20290;-66
2022/11/01 03:12:31;;;;;;;7.45;3.70;;;;;;;15.56;100.00;100708.84;4977770;28;20620;-66
2022/11/01 03:15:04;;;;;;;9.02;3.90;;;;;;;15.53;100.00;100719.28;4971541;28;20039;-65
2022/11/01 03:17:32;;;;;;;9.90;3.80;;;;;;;15.52;100.00;100720.16;4970811;28;20015;-65
2022/11/01 03:20:06;;;;;;;7.10;3.40;;;;;;;15.53;100.00;100716.66;4962727;28;20033;-65
2022/11/01 03:22:45;;;;;;;7.00;3.53;;;;;;;15.55;100.00;100724.50;4988703;28;20122;-65
2022/11/01 03:25:39;;;;;;;5.82;3.78;;;;;;;15.56;100.00;100740.19;4976894;28;20217;-66
2022/11/01 03:28:31;;;;;;;7.13;3.63;;;;;;;15.59;100.00;100737.63;4960839;28;20102;-66
2022/11/01 03:31:08;;;;;;;12.90;4.20;;;;;;;15.58;100.00;100745.41;4966418;28;20582;-66
2022/11/01 03:33:39;;;;;;;7.78;3.80;;;;;;;15.56;100.00;100752.41;4961219;28;20029;-66
2022/11/01 03:36:12;;;;;;;4.78;3.28;;;;;;;15.54;100.00;100754.09;4977941;28;20034;-65
2022/11/01 03:38:44;;;;;;;3.88;2.55;;;;;;;15.56;100.00;100758.47;4987030;28;20462;-65
2022/11/01 03:41:13;;;;;;;5.70;2.85;;;;;;;15.53;100.00;100766.28;4966500;28;20039;-65
2022/11/01 03:43:40;;;;;;;5.60;2.55;;;;;;;15.52;100.00;100761.94;4978604;28;20030;-66
2022/11/01 03:46:06;;;;;;;4.97;1.80;;;;;;;15.47;100.00;100769.69;4960752;28;20233;-65
2022/11/01 03:48:31;;;;;;;4.35;1.10;;;;;;;15.43;99.80;100777.50;4956087;28;20494;-65
2022/11/01 03:50:57;;;;;;;2.25;1.30;;;;;;;15.39;99.04;100776.59;4971037;28;20381;-65
2022/11/01 03:53:22;;;;;;;4.10;1.30;;;;;;;15.33;98.02;100787.81;4974329;28;20153;-65
2022/11/01 03:55:48;;;;;;;2.17;1.20;;;;;;;15.29;94.41;100786.03;4974538;28;20570;-65
2022/11/01 03:58:14;;;;;;;4.15;0.90;;;;;;;15.25;95.11;100805.16;4976236;28;20015;-65
2022/11/01 04:00:44;;;;;;;4.25;0.90;;;;;;;15.19;95.47;100790.28;4962447;28;20085;-65
2022/11/01 04:03:10;;;;;;;1.30;0.70;;;;;;;15.12;93.63;100807.59;4963320;28;20287;-65
2022/11/01 04:05:38;;;;;;;1.73;0.90;;;;;;;15.05;93.86;100813.59;4971719;28;20284;-65
2022/11/01 04:08:04;;;;;;;2.50;0.93;;;;;;;15.00;90.16;100815.28;4969996;28;20035;-65
2022/11/01 04:10:29;;;;;;;2.00;0.68;;;;;;;14.95;91.81;100832.59;4955948;28;20031;-65
2022/11/01 04:12:56;;;;;;;1.65;0.65;;;;;;;14.87;89.52;100838.59;4964573;28;20031;-65
2022/11/01 04:21:15;;;;;;;3.15;0.70;;;;;;;14.69;89.00;100853.94;4967597;28;20542;-65
2022/11/01 04:23:42;;;;;;;2.58;0.60;;;;;;;14.63;87.03;100860.81;4963963;28;20058;-65
2022/11/01 04:26:11;;;;;;;1.48;0.50;;;;;;;14.58;87.54;100872.91;4968795;28;20038;-65
2022/11/01 04:28:36;;;;;;;1.77;0.50;;;;;;;14.49;86.92;100863.19;4969658;28;20130;-65
2022/11/01 04:31:02;;;;;;;2.13;0.68;;;;;;;14.44;85.78;100874.41;4954980;28;20488;-65
2022/11/01 04:33:27;;;;;;;1.88;0.63;;;;;;;14.38;86.41;100878.66;4960910;28;20035;-66
2022/11/01 04:35:52;;;;;;;4.40;0.73;;;;;;;14.34;86.58;100897.69;4951851;28;20391;-65
2022/11/01 04:38:17;;;;;;;1.65;0.50;;;;;;;14.29;87.10;100899.34;4969812;28;20018;-65
2022/11/01 04:40:43;;;;;;;2.72;0.50;;;;;;;14.25;86.81;100898.41;4969956;28;20037;-65
2022/11/01 04:43:09;;;;;;;2.00;0.50;;;;;;;14.20;86.09;100901.78;4955338;28;20438;-65
2022/11/01 04:45:34;;;;;;;1.52;0.73;;;;;;;14.12;86.25;100912.94;4969640;28;20385;-65
2022/11/01 04:48:12;;;;;;;2.20;0.68;;;;;;;14.10;86.45;100916.38;4969021;28;20093;-65
2022/11/01 04:50:38;;;;;;;2.63;0.60;;;;;;;14.01;86.73;100922.31;4959412;28;20038;-66
2022/11/01 04:53:03;;;;;;;2.15;0.65;;;;;;;13.98;87.33;100925.72;4963802;28;20466;-65
2022/11/01 04:55:28;;;;;;;3.58;0.60;;;;;;;13.92;87.62;100934.28;4958546;28;20099;-65
2022/11/01 04:57:54;;;;;;;3.65;0.55;;;;;;;13.89;87.37;100946.38;4969363;28;20837;-65
2022/11/01 05:00:21;;;;;;;1.67;0.60;;;;;;;13.84;87.64;100948.88;4956311;28;20541;-65
2022/11/01 05:02:47;;;;;;;1.38;0.40;;;;;;;13.80;87.69;100957.47;4962057;28;20497;-65
2022/11/01 05:05:13;;;;;;;4.00;0.50;;;;;;;13.78;87.71;100964.41;4962734;28;20026;-65
2022/11/01 05:07:38;;;;;;;2.25;0.40;;;;;;;13.73;87.38;100966.00;4979176;28;20284;-65
2022/11/01 05:10:04;;;;;;;2.92;0.75;;;;;;;13.68;87.58;100982.44;4988425;28;20038;-65
2022/11/01 05:12:29;;;;;;;2.45;0.50;;;;;;;13.63;88.61;100978.84;4973420;28;20403;-65
2022/11/01 05:14:55;;;;;;;1.10;0.55;;;;;;;13.59;88.93;100984.84;4976279;28;20494;-65
2022/11/01 05:17:20;;;;;;;2.33;0.70;;;;;;;13.54;89.31;100984.75;4956061;28;20027;-65
2022/11/01 05:19:45;;;;;;;1.83;0.63;;;;;;;13.51;90.04;100994.19;4968621;28;20085;-65
2022/11/01 05:22:11;;;;;;;2.50;0.52;;;;;;;13.44;90.12;100996.63;4982112;28;20031;-66
2022/11/01 05:24:36;;;;;;;1.88;0.50;;;;;;;13.42;91.14;101003.50;4969068;28;20503;-65
2022/11/01 05:27:01;;;;;;;2.78;0.55;;;;;;;13.38;90.80;101006.91;4968404;28;20031;-65
2022/11/01 05:29:27;;;;;;;3.53;0.60;;;;;;;13.32;91.15;100998.94;4968679;28;20023;-65
2022/11/01 05:31:53;;;;;;;2.55;0.55;;;;;;;13.28;91.65;101003.19;4956932;28;20098;-65
2022/11/01 05:34:18;;;;;;;2.05;0.50;;;;;;;13.25;92.15;101008.34;4969159;28;20046;-65
2022/11/01 05:36:44;;;;;;;1.88;0.80;;;;;;;13.21;91.11;101010.00;4975240;28;20039;-65
2022/11/01 05:39:09;;;;;;;2.33;0.30;;;;;;;13.21;91.17;101007.38;4968683;28;20092;-65
2022/11/01 05:41:34;;;;;;;2.42;0.80;;;;;;;13.18;91.21;101015.13;4968040;28;20038;-65
2022/11/01 05:44:00;;;;;;;2.53;0.40;;;;;;;13.17;91.58;101010.75;4967582;28;20495;-65
2022/11/01 05:46:25;;;;;;;2.45;1.02;;;;;;;13.13;91.94;101015.84;4961381;28;20479;-65
2022/11/01 05:48:50;;;;;;;2.95;0.70;;;;;;;13.12;92.06;101021.88;4961909;28;20035;-65
2022/11/01 05:51:15;;;;;;;5.78;0.93;;;;;;;13.11;92.55;101028.84;4960299;28;20471;-65
2022/11/01 05:53:41;;;;;;;1.75;0.68;;;;;;;13.06;92.65;101025.25;4974969;28;20023;-65
2022/11/01 05:56:06;;;;;;;4.28;0.95;;;;;;;13.04;92.17;101019.13;4961461;28;20035;-65
2022/11/01 05:58:31;;;;;;;6.47;1.52;;;;;;;13.02;90.29;101039.00;4968453;28;20027;-65
2022/11/01 06:01:03;;;;;;;3.13;0.60;;;;;;;13.00;88.20;101032.88;4979491;28;20105;-65
2022/11/01 06:03:28;;;;;;;1.95;0.70;;;;;;;12.96;88.35;101048.41;4961195;28;20019;-65
2022/11/01 06:05:54;;;;;;;4.72;1.58;;;;;;;12.94;86.53;101047.50;4967254;28;20088;-65
2022/11/01 06:08:19;;;;;;;4.65;0.93;;;;;;;12.90;86.61;101045.63;4957230;28;20459;-65
2022/11/01 06:10:44;;;;;;;4.70;0.82;;;;;;;12.85;86.68;101044.66;4969394;28;20382;-65
2022/11/01 06:13:10;;;;;;;5.68;0.68;;;;;;;12.85;85.59;101057.66;4970525;28;20045;-65
2022/11/01 06:15:35;;;;;;;5.43;1.02;;;;;;;12.83;86.56;101059.31;4964777;28;20109;-65
2022/11/01 06:18:01;;;;;;;4.53;0.80;;;;;;;12.81;86.71;101066.19;4957719;28;20046;-65
2022/11/01 06:20:31;;;;;;;4.30;1.15;;;;;;;12.74;87.29;101070.38;4969375;28;20057;-65
2022/11/01 06:22:58;;;;;;;2.83;0.90;;;;;;;12.72;88.01;101075.53;4966190;28;20058;-65
2022/11/01 06:25:24;;;;;;;4.03;0.90;;;;;;;12.70;88.42;101087.59;4962151;28;20360;-65
2022/11/01 06:27:49;;;;;;;8.18;0.90;;;;;;;12.65;87.82;101078.78;4948895;28;20027;-65
2022/11/01 06:30:14;;;;;;;3.35;0.80;;;;;;;12.66;88.01;101088.38;4955698;28;20021;-65
2022/11/01 06:32:40;;;;;;;4.75;1.60;;;;;;;12.64;88.61;101090.06;4953464;28;20035;-65
2022/11/01 06:35:05;;;;;;;4.70;1.05;;;;;;;12.62;88.92;101089.13;4969636;28;20023;-65
2022/11/01 06:37:31;;;;;;;3.63;0.60;;;;;;;12.58;88.83;101100.25;4959015;28;20026;-65
2022/11/01 06:39:56;;;;;;;5.10;0.90;;;;;;;12.58;89.52;101105.47;4978903;28;20475;-65
2022/11/01 06:42:21;;;;;;;2.92;0.80;;;;;;;12.54;89.95;101098.44;4962346;28;20027;-65
2022/11/01 06:44:47;;;;;;;3.47;1.30;;;;;;;12.50;90.37;101102.66;4962440;28;20044;-65
2022/11/01 06:47:12;;;;;;;4.05;0.60;;;;;;;12.48;91.36;101109.53;4970161;28;20471;-65
2022/11/01 06:49:37;;;;;;;2.90;0.50;;;;;;;12.45;91.48;101115.50;4968105;28;20094;-65
2022/11/01 06:52:03;;;;;;;4.43;1.08;;;;;;;12.45;92.49;101130.22;4976561;28;20037;-65
2022/11/01 06:54:29;;;;;;;5.07;1.48;;;;;;;12.41;92.58;101133.59;4965398;28;20483;-65
2022/11/01 06:56:55;;;;;;;5.97;0.93;;;;;;;12.40;93.35;101131.81;4977863;28;20451;-65
2022/11/01 06:59:20;;;;;;;3.05;0.82;;;;;;;12.35;93.49;101136.88;4983204;28;20061;-65
2022/11/01 07:01:45;;;;;;;6.30;1.05;;;;;;;12.35;94.32;101140.38;4985677;28;20279;-65
2022/11/01 07:04:11;;;;;;;3.33;0.85;;;;;;;12.34;94.55;101142.94;4979990;28;20030;-64
2022/11/01 07:06:36;;;;;;;4.10;0.90;;;;;;;12.28;94.75;101133.22;4949674;28;20467;-65
2022/11/01 07:09:01;;;;;;;5.55;1.10;;;;;;;12.25;93.73;101138.31;4962458;28;20027;-64
2022/11/01 07:11:27;;;;;;;6.22;1.00;;;;;;;12.25;94.15;101144.41;4948733;28;20569;-65
2022/11/01 07:13:52;;;;;;;5.32;1.20;;;;;;;12.24;93.58;101153.03;4960592;28;20038;-64
2022/11/01 07:16:17;;;;;;;8.48;1.58;;;;;;;12.25;94.29;101159.97;4960080;28;20030;-65
2022/11/01 07:18:43;;;;;;;6.68;1.30;;;;;;;12.25;94.10;101164.28;4962959;28;20020;-64
2022/11/01 07:21:09;;;;;;;6.88;0.93;;;;;;;12.21;93.93;101168.53;4962497;28;20224;-64
2022/11/01 07:23:34;;;;;;;6.95;1.25;;;;;;;12.20;92.32;101182.34;4962128;28;20023;-65
2022/11/01 07:26:00;;;;;;;5.47;0.98;;;;;;;12.18;92.73;101176.22;4968472;28;20034;-64
2022/11/01 07:28:25;;;;;;;6.35;1.13;;;;;;;12.17;92.27;101183.97;4969930;28;20383;-64
2022/11/01 07:30:52;;;;;;;5.22;1.40;;;;;;;12.15;92.63;101194.31;4970870;28;20030;-64
2022/11/01 07:33:18;;;;;;;6.80;1.65;;;;;;;12.17;91.95;101192.66;4977708;28;20538;-65
2022/11/01 07:35:43;;;;;;;6.78;1.40;;;;;;;12.14;91.43;101197.75;4978521;28;20170;-64
2022/11/01 07:38:09;;;;;;;7.72;1.60;;;;;;;12.13;91.80;101209.84;4959026;28;20023;-64
2022/11/01 07:40:35;;;;;;;6.43;1.92;;;;;;;12.16;91.16;101201.25;4953127;28;20106;-65
2022/11/01 07:43:01;;;;;;;8.50;1.10;;;;;;;12.13;91.25;101206.38;4960852;28;20023;-65
2022/11/01 07:45:28;;;;;;;7.63;1.20;;;;;;;12.13;90.52;101207.25;4968441;28;20042;-65
2022/11/01 07:48:01;;;;;;;6.88;2.28;;;;;;;12.16;90.17;101214.25;4954302;28;20031;-64
2022/11/01 07:50:28;;;;;;;7.30;1.13;;;;;;;12.15;89.64;101220.28;4966380;28;20023;-64
2022/11/01 07:53:04;;;;;;;8.23;1.75;;;;;;;12.16;90.69;101214.25;4961766;28;20025;-64
2022/11/01 07:55:29;;;;;;;7.72;1.23;;;;;;;12.17;91.12;101226.44;4961464;28;20035;-64
2022/11/01 07:57:55;;;;;;;4.82;1.13;;;;;;;12.18;90.55;101228.19;4970837;28;20092;-64
2022/11/01 08:00:20;;;;;;;7.70;1.63;;;;;;;12.20;91.04;101228.22;4958109;28;20038;-65
2022/11/01 08:02:45;;;;;;;10.05;2.30;;;;;;;12.18;90.45;101235.97;4969395;28;20022;-64
2022/11/01 08:05:11;;;;;;;5.60;1.45;;;;;;;12.20;91.41;101234.31;4970717;28;20110;-64
2022/11/01 08:07:40;;;;;;;9.55;1.80;;;;;;;12.22;91.62;101243.03;4969941;28;20057;-65
2022/11/01 08:10:07;;;;;;;9.10;1.90;;;;;;;12.24;90.19;101246.56;4970127;28;20570;-65
2022/11/01 08:12:33;;;;;;;11.57;2.10;;;;;;;12.22;89.68;101247.34;4957304;28;20037;-65
2022/11/01 08:14:58;;;;;;;6.65;1.50;;;;;;;12.24;90.07;101240.47;4977818;28;20015;-65
2022/11/01 08:17:23;;;;;;;5.20;1.15;;;;;;;12.27;90.01;101245.78;4976771;28;20011;-64
2022/11/01 08:19:49;;;;;;;8.80;1.63;;;;;;;12.30;89.89;101258.88;4956158;28;20483;-64
2022/11/01 08:22:14;;;;;;;7.28;1.60;;;;;;;12.35;90.25;101253.81;4959013;28;20364;-65
2022/11/01 08:24:39;;;;;;;7.43;1.70;;;;;;;12.39;89.71;101266.09;4967544;28;20034;-64
2022/11/01 08:27:05;;;;;;;7.43;1.50;;;;;;;12.39;88.43;101260.88;4979509;28;20041;-64
2022/11/01 08:29:30;;;;;;;8.65;1.48;;;;;;;12.43;88.62;101257.53;4981888;28;20041;-64
2022/11/01 08:31:55;;;;;;;12.48;2.25;;;;;;;12.49;87.93;101262.94;4962953;28;20058;-64
2022/11/01 08:34:20;;;;;;;8.45;2.33;;;;;;;12.55;87.38;101274.34;4986261;28;20307;-65
2022/11/01 08:36:46;;;;;;;7.85;1.90;;;;;;;12.67;86.73;101282.53;4960279;28;20026;-64
2022/11/01 08:39:11;;;;;;;8.40;1.67;;;;;;;12.84;84.90;101279.56;4970003;28;20440;-64
2022/11/01 08:41:36;;;;;;;6.90;1.85;;;;;;;13.03;84.76;101273.16;4980080;28;20111;-64
2022/11/01 08:44:02;;;;;;;10.65;1.75;;;;;;;13.14;84.37;101276.06;4987450;28;20431;-65
2022/11/01 08:46:27;;;;;;;7.97;1.48;;;;;;;13.12;83.13;101280.34;4962648;28;20035;-64
2022/11/01 08:48:55;;;;;;;5.88;1.42;;;;;;;13.12;82.59;101269.06;4968127;28;20026;-64
2022/11/01 08:51:24;;;;;;;10.15;1.67;;;;;;;13.05;82.55;101271.50;4969550;28;20023;-64
2022/11/01 08:53:57;;;;;;;6.75;1.48;;;;;;;12.99;83.29;101284.31;4965790;28;20027;-64
2022/11/01 08:56:23;;;;;;;7.22;1.90;;;;;;;12.95;83.55;101278.13;4960682;28;20526;-65
2022/11/01 08:58:50;;;;;;;10.90;2.17;;;;;;;12.88;83.01;101302.19;4969343;28;20458;-64
2022/11/01 09:01:16;;;;;;;10.75;2.03;;;;;;;12.80;83.03;101290.69;4970090;28;20027;-64
2022/11/01 09:03:41;;;;;;;9.20;1.42;;;;;;;12.79;83.71;101291.53;4969266;28;20034;-65
2022/11/01 09:06:06;;;;;;;7.22;1.85;;;;;;;12.80;85.18;101298.50;4963001;28;20042;-65
2022/11/01 09:08:31;;;;;;;8.27;1.50;;;;;;;12.78;84.62;101297.56;4962875;28;20034;-64
2022/11/01 09:10:58;;;;;;;9.57;2.78;;;;;;;12.80;85.16;101293.28;4966213;28;20093;-64
2022/11/01 09:13:23;;;;;;;7.15;2.05;;;;;;;12.83;85.72;101308.97;4953592;28;20561;-64
2022/11/01 09:15:48;;;;;;;12.32;2.08;;;;;;;12.80;85.09;101299.38;4977577;28;20046;-64
2022/11/01 09:18:13;;;;;;;6.78;1.77;;;;;;;12.78;85.37;101305.34;4987716;28;20025;-64
2022/11/01 09:20:39;;;;;;;8.57;1.75;;;;;;;12.82;85.71;101308.13;4974918;28;20465;-64
2022/11/01 09:23:04;;;;;;;8.65;1.65;;;;;;;12.83;85.63;101299.47;4959065;28;20057;-65
2022/11/01 09:25:30;;;;;;;10.40;1.95;;;;;;;12.86;85.90;101301.28;4968581;28;20038;-64
2022/11/01 09:27:56;;;;;;;8.68;2.08;;;;;;;12.85;85.01;101307.31;4977982;28;20277;-65
2022/11/01 09:30:22;;;;;;;10.63;2.28;;;;;;;12.89;86.27;101298.78;4958639;28;20376;-64
2022/11/01 09:32:47;;;;;;;7.72;1.90;;;;;;;12.88;85.30;101304.78;4969765;28;20030;-65
2022/11/01 09:35:13;;;;;;;12.02;2.15;;;;;;;12.92;85.85;101308.38;4969768;28;20030;-65
2022/11/01 09:37:38;;;;;;;8.25;1.40;;;;;;;12.90;85.20;101303.13;4958368;28;20046;-64
2022/11/01 09:40:04;;;;;;;10.70;2.03;;;;;;;12.92;85.29;101319.66;4966724;28;20023;-64
2022/11/01 09:42:34;;;;;;;8.68;2.08;;;;;;;12.93;85.47;101329.22;4969911;28;20467;-64
2022/11/01 09:45:06;;;;;;;9.05;1.75;;;;;;;12.96;86.03;101339.75;4956993;28;20055;-65
2022/11/01 09:47:34;;;;;;;9.68;1.73;;;;;;;13.00;86.58;101343.31;4964690;28;20089;-65
2022/11/01 09:50:02;;;;;;;9.38;1.95;;;;;;;13.05;87.00;101336.53;4960872;28;20598;-65
2022/11/01 09:52:27;;;;;;;9.85;1.60;;;;;;;13.11;85.58;101350.56;4975136;28;20066;-65
2022/11/01 09:54:53;;;;;;;9.90;2.28;;;;;;;13.12;85.43;101357.50;4951961;28;20062;-65
2022/11/01 09:57:25;;;;;;;12.95;1.90;;;;;;;13.12;85.45;101360.13;4966920;28;20026;-65
2022/11/01 10:00:12;;;;;;;8.75;1.60;;;;;;;13.14;85.22;101355.84;4968163;28;20035;-64
2022/11/01 10:03:06;;;;;;;6.40;1.30;;;;;;;13.18;85.50;101365.50;4973317;28;20034;-64
2022/11/01 10:05:47;;;;;;;10.82;2.10;;;;;;;13.20;85.71;101372.50;4955142;28;20038;-65
2022/11/01 10:08:31;;;;;;;8.55;1.67;;;;;;;13.26;86.42;101382.22;4967955;28;20014;-65
2022/11/01 10:11:06;;;;;;;10.98;2.10;;;;;;;13.28;85.34;101382.25;4960248;28;20053;-65
2022/11/01 10:13:37;;;;;;;6.32;1.50;;;;;;;13.31;85.96;101387.59;4961652;28;20389;-65
2022/11/01 10:16:40;;;;;;;7.03;1.58;;;;;;;13.34;84.93;101369.44;4958932;28;20403;-64
2022/11/01 10:19:15;;;;;;;9.77;1.75;;;;;;;13.36;85.19;101388.59;4958164;28;20109;-65
2022/11/01 10:21:59;;;;;;;11.88;2.17;;;;;;;13.35;84.68;101392.03;4968166;28;20102;-65
2022/11/01 10:24:30;;;;;;;8.80;1.88;;;;;;;13.33;85.03;101383.28;4964925;28;20039;-65
2022/11/01 10:27:17;;;;;;;8.75;2.20;;;;;;;13.28;84.51;101390.06;4974877;28;20054;-65
2022/11/01 10:30:01;;;;;;;7.40;1.92;;;;;;;13.27;85.48;101385.72;4974318;28;20046;-65
2022/11/01 10:32:39;;;;;;;9.10;1.83;;;;;;;13.26;85.68;101374.41;4948773;28;20467;-64
2022/11/01 10:35:20;;;;;;;6.63;1.77;;;;;;;13.33;85.89;101388.50;4950213;28;20070;-65
2022/11/01 10:37:54;;;;;;;13.38;2.38;;;;;;;13.37;85.19;101395.56;4987021;28;20498;-64
2022/11/01 10:40:28;;;;;;;8.57;1.83;;;;;;;13.40;84.56;101397.38;4973326;28;20106;-64
2022/11/01 10:42:53;;;;;;;8.18;1.83;;;;;;;13.45;85.53;101391.44;4987198;28;20068;-64
2022/11/01 10:45:21;;;;;;;9.52;2.00;;;;;;;13.51;84.65;101392.50;4958644;28;20095;-64
2022/11/01 10:47:52;;;;;;;8.73;2.47;;;;;;;13.56;85.09;101396.13;4955719;28;20467;-65
2022/11/01 10:50:21;;;;;;;7.30;2.00;;;;;;;13.60;84.93;101392.75;4971498;28;20109;-65
2022/11/01 10:52:58;;;;;;;9.13;1.90;;;;;;;13.69;84.63;101390.41;4960540;28;20031;-64
2022/11/01 10:55:33;;;;;;;7.32;1.60;;;;;;;13.74;83.89;101394.88;4970546;28;20081;-64
2022/11/01 10:58:27;;;;;;;6.40;2.03;;;;;;;13.79;83.46;101390.69;4966306;28;20490;-65
2022/11/01 11:00:52;;;;;;;7.85;1.65;;;;;;;13.85;83.32;101392.56;4970281;28;20038;-64
2022/11/01 11:03:24;;;;;;;6.68;1.58;;;;;;;13.91;83.93;101391.00;4973393;28;20178;-65
2022/11/01 11:05:51;;;;;;;13.15;1.67;;;;;;;13.99;83.10;101385.13;4960998;28;20042;-65
2022/11/01 11:08:20;;;;;;;5.85;1.73;;;;;;;14.06;82.77;101392.28;4973326;28;20053;-64
2022/11/01 11:10:46;;;;;;;6.05;1.65;;;;;;;14.17;83.81;101388.19;4972492;28;20035;-65
2022/11/01 11:13:15;;;;;;;9.10;1.92;;;;;;;14.26;81.63;101394.50;4966400;28;20039;-64
2022/11/01 11:15:45;;;;;;;6.32;1.67;;;;;;;14.32;82.02;101389.44;4974076;28;20080;-65
2022/11/01 11:18:22;;;;;;;10.68;2.00;;;;;;;14.37;80.58;101377.41;4968613;28;20425;-65
2022/11/01 11:20:58;;;;;;;10.68;1.50;;;;;;;14.48;81.20;101387.25;4963315;28;20390;-64
2022/11/01 11:23:26;;;;;;;9.88;1.65;;;;;;;14.58;80.55;101386.59;4957670;28;20085;-64
2022/11/01 11:25:51;;;;;;;9.02;1.85;;;;;;;14.69;80.60;101388.59;4981518;28;20121;-64
2022/11/01 11:28:24;;;;;;;7.15;1.55;;;;;;;14.76;78.53;101390.50;4976436;28;20050;-65
2022/11/01 11:30:50;;;;;;;7.22;1.85;;;;;;;14.77;79.87;101381.81;4973377;28;20031;-64
2022/11/01 11:33:17;;;;;;;7.60;1.50;;;;;;;14.84;79.11;101378.53;4965278;28;20402;-65
2022/11/01 11:35:52;;;;;;;8.45;2.00;;;;;;;14.84;77.49;101370.69;4965120;28;20034;-65
2022/11/01 11:38:37;;;;;;;12.00;1.95;;;;;;;14.94;77.68;101378.75;4963456;28;20556;-65